createdAt,value
2018-11-10T00:00:19.384Z,5.00
2018-11-10T00:02:49.087Z,3.20
2018-11-10T00:05:18.740Z,3.00
2018-11-10T00:07:47.534Z,2.70
2018-11-10T00:10:33.927Z,3.47
2018-11-10T00:13:02.667Z,3.72
2018-11-10T00:15:31.401Z,3.47
2018-11-10T00:18:00.269Z,4.78
2018-11-10T00:20:29.184Z,4.22
2018-11-10T00:22:57.888Z,2.60
2018-11-10T00:25:26.732Z,3.10
2018-11-10T00:27:56.331Z,4.60
2018-11-10T00:30:25.058Z,3.72
2018-11-10T00:32:53.839Z,4.15
2018-11-10T00:35:22.583Z,3.25
2018-11-10T00:37:51.304Z,2.60
2018-11-10T00:40:21.023Z,6.30
2018-11-10T00:42:49.776Z,1.70
2018-11-10T00:45:18.511Z,3.87
2018-11-10T00:47:47.271Z,6.72
2018-11-10T00:50:16.064Z,3.58
2018-11-10T00:52:45.981Z,3.25
2018-11-10T00:55:14.648Z,3.55
2018-11-10T00:57:43.411Z,3.45
2018-11-10T01:00:13.105Z,5.53
2018-11-10T01:02:43.023Z,3.17
2018-11-10T01:05:11.705Z,4.97
2018-11-10T01:07:40.807Z,3.45
2018-11-10T01:10:11.125Z,3.33
2018-11-10T01:12:40.008Z,2.62
2018-11-10T01:15:10.891Z,1.80
2018-11-10T01:17:39.999Z,2.45
2018-11-10T01:20:09.540Z,2.27
2018-11-10T01:22:38.497Z,1.90
2018-11-10T01:25:08.245Z,4.97
2018-11-10T01:27:37.059Z,2.95
2018-11-10T01:30:08.642Z,3.50
2018-11-10T01:32:37.348Z,1.80
2018-11-10T01:35:06.053Z,3.37
2018-11-10T01:37:35.009Z,2.37
2018-11-10T01:40:03.785Z,3.47
2018-11-10T01:42:32.592Z,3.15
2018-11-10T01:45:01.339Z,3.65
2018-11-10T01:47:30.067Z,2.65
2018-11-10T01:49:58.846Z,3.35
2018-11-10T01:52:27.594Z,7.58
2018-11-10T01:54:56.341Z,3.08
2018-11-10T01:57:25.067Z,2.70
2018-11-10T01:59:54.507Z,3.90
2018-11-10T02:02:23.707Z,2.00
2018-11-10T02:04:52.463Z,1.95
2018-11-10T02:07:21.150Z,2.65
2018-11-10T02:09:49.872Z,3.15
2018-11-10T02:12:18.640Z,4.72
2018-11-10T02:14:47.401Z,5.00
2018-11-10T02:17:17.330Z,2.90
2018-11-10T02:19:46.070Z,1.95
2018-11-10T02:22:14.808Z,2.70
2018-11-10T02:24:43.622Z,2.52
2018-11-10T02:27:17.807Z,2.45
2018-11-10T02:29:46.547Z,3.37
2018-11-10T02:32:16.973Z,2.65
2018-11-10T02:34:45.729Z,2.70
2018-11-10T02:37:14.515Z,2.25
2018-11-10T02:39:43.249Z,2.98
2018-11-10T02:42:13.068Z,2.95
2018-11-10T02:44:41.824Z,3.08
2018-11-10T02:47:10.549Z,4.17
2018-11-10T02:49:39.265Z,1.87
2018-11-10T02:52:07.952Z,4.90
2018-11-10T02:54:36.707Z,4.75
2018-11-10T02:57:05.734Z,5.95
2018-11-10T02:59:34.432Z,5.90
2018-11-10T03:02:03.754Z,3.90
2018-11-10T03:04:32.465Z,3.58
2018-11-10T03:07:01.294Z,2.40
2018-11-10T03:09:30.082Z,3.37
2018-11-10T03:11:58.744Z,6.87
2018-11-10T03:14:27.455Z,4.60
2018-11-10T03:16:56.157Z,2.15
2018-11-10T03:19:25.784Z,2.10
2018-11-10T03:21:54.581Z,5.50
2018-11-10T03:24:23.323Z,2.50
2018-11-10T03:26:52.052Z,3.10
2018-11-10T03:29:20.759Z,2.52
2018-11-10T03:31:49.553Z,3.27
2018-11-10T03:34:18.287Z,2.85
2018-11-10T03:36:47.108Z,4.20
2018-11-10T03:39:15.813Z,2.55
2018-11-10T03:41:44.529Z,2.83
2018-11-10T03:44:13.228Z,2.67
2018-11-10T03:46:41.923Z,5.10
2018-11-10T03:49:10.686Z,4.78
2018-11-10T03:51:39.390Z,13.80
2018-11-10T03:54:08.308Z,2.27
2018-11-10T03:56:37.151Z,2.37
2018-11-10T03:59:06.199Z,2.95
2018-11-10T04:01:35.238Z,2.65
2018-11-10T04:04:03.928Z,3.62
2018-11-10T04:06:32.673Z,1.90
2018-11-10T04:09:01.469Z,2.95
2018-11-10T04:11:30.447Z,3.27
2018-11-10T04:13:59.131Z,3.50
2018-11-10T04:16:27.951Z,2.80
2018-11-10T04:18:56.685Z,3.67
2018-11-10T04:21:25.999Z,5.12
2018-11-10T04:23:54.773Z,2.10
2018-11-10T04:26:23.529Z,3.35
2018-11-10T04:28:52.355Z,5.30
2018-11-10T04:31:21.101Z,1.95
2018-11-10T04:33:49.896Z,5.55
2018-11-10T04:36:18.695Z,2.85
2018-11-10T04:38:47.437Z,2.33
2018-11-10T04:41:16.169Z,2.27
2018-11-10T04:43:44.930Z,2.25
2018-11-10T04:46:13.744Z,2.45
2018-11-10T04:48:42.560Z,3.25
2018-11-10T04:51:11.297Z,2.22
2018-11-10T04:53:40.011Z,2.10
2018-11-10T04:56:08.697Z,5.15
2018-11-10T04:58:37.497Z,2.72
2018-11-10T05:01:06.279Z,2.50
2018-11-10T05:03:35.111Z,4.20
2018-11-10T05:06:03.849Z,3.55
2018-11-10T05:08:32.566Z,2.65
2018-11-10T05:11:01.295Z,2.33
2018-11-10T05:13:29.978Z,2.45
2018-11-10T05:15:58.730Z,2.30
2018-11-10T05:18:28.165Z,3.58
2018-11-10T05:20:56.869Z,3.33
2018-11-10T05:23:25.643Z,1.82
2018-11-10T05:25:54.364Z,2.95
2018-11-10T05:28:23.045Z,2.45
2018-11-10T05:30:51.806Z,2.67
2018-11-10T05:33:21.133Z,3.50
2018-11-10T05:35:50.193Z,3.27
2018-11-10T05:38:18.878Z,1.95
2018-11-10T05:40:47.662Z,3.67
2018-11-10T05:43:16.400Z,3.85
2018-11-10T05:45:45.069Z,2.30
2018-11-10T05:48:13.840Z,2.05
2018-11-10T05:50:42.710Z,1.92
2018-11-10T05:53:11.381Z,2.45
2018-11-10T05:55:40.094Z,2.22
2018-11-10T05:58:08.792Z,2.15
2018-11-10T06:00:37.539Z,3.40
2018-11-10T06:03:06.361Z,2.12
2018-11-10T06:05:35.141Z,2.02
2018-11-10T06:08:03.893Z,2.52
2018-11-10T06:10:32.705Z,1.95
2018-11-10T06:13:01.390Z,2.15
2018-11-10T06:15:30.075Z,2.52
2018-11-10T06:17:58.890Z,3.42
2018-11-10T06:20:27.735Z,2.15
2018-11-10T06:22:56.485Z,1.60
2018-11-10T06:25:25.255Z,3.25
2018-11-10T06:27:54.042Z,1.77
2018-11-10T06:30:22.803Z,2.00
2018-11-10T06:32:51.634Z,2.30
2018-11-10T06:35:20.412Z,2.70
2018-11-10T06:37:49.158Z,2.27
2018-11-10T06:40:17.909Z,2.67
2018-11-10T06:42:46.737Z,3.47
2018-11-10T06:45:15.639Z,3.12
2018-11-10T06:47:44.345Z,2.12
2018-11-10T06:50:13.128Z,4.67
2018-11-10T06:52:41.927Z,1.70
2018-11-10T06:55:11.340Z,1.85
2018-11-10T06:57:40.252Z,1.55
2018-11-10T07:00:10.863Z,3.17
2018-11-10T07:02:39.840Z,1.60
2018-11-10T07:05:09.104Z,2.42
2018-11-10T07:07:39.269Z,2.85
2018-11-10T07:10:08.287Z,2.60
2018-11-10T07:12:37.035Z,2.33
2018-11-10T07:15:06.604Z,1.90
2018-11-10T07:17:35.473Z,1.70
2018-11-10T07:20:04.333Z,1.20
2018-11-10T07:22:33.135Z,1.50
2018-11-10T07:25:01.901Z,2.00
2018-11-10T07:27:31.935Z,2.25
2018-11-10T07:30:00.654Z,1.45
2018-11-10T07:32:29.355Z,8.05
2018-11-10T07:34:58.649Z,1.82
2018-11-10T07:37:27.415Z,3.55
2018-11-10T07:39:56.227Z,2.40
2018-11-10T07:42:24.913Z,1.65
2018-11-10T07:44:53.664Z,2.75
2018-11-10T07:47:22.387Z,1.80
2018-11-10T07:49:51.240Z,1.98
2018-11-10T07:52:19.979Z,3.67
2018-11-10T07:54:48.883Z,4.33
2018-11-10T07:57:17.573Z,1.80
2018-11-10T07:59:46.273Z,3.80
2018-11-10T08:02:15.034Z,2.33
2018-11-10T08:04:43.785Z,11.12
2018-11-10T08:07:12.495Z,2.00
2018-11-10T08:09:41.197Z,2.30
2018-11-10T08:12:11.305Z,2.50
2018-11-10T08:14:40.025Z,1.40
2018-11-10T08:17:08.701Z,3.25
2018-11-10T08:19:37.444Z,2.25
2018-11-10T08:22:06.231Z,1.52
2018-11-10T08:24:34.929Z,5.62
2018-11-10T08:27:03.733Z,1.65
2018-11-10T08:29:32.459Z,1.20
2018-11-10T08:32:01.172Z,1.45
2018-11-10T08:34:31.369Z,1.85
2018-11-10T08:37:00.045Z,1.52
2018-11-10T08:39:28.836Z,1.55
2018-11-10T08:41:57.542Z,6.70
2018-11-10T08:44:26.232Z,2.58
2018-11-10T08:46:55.547Z,1.75
2018-11-10T08:49:24.391Z,2.40
2018-11-10T08:51:53.005Z,2.30
2018-11-10T08:54:21.802Z,3.77
2018-11-10T08:56:50.526Z,1.70
2018-11-10T08:59:19.431Z,2.27
2018-11-10T09:01:48.076Z,2.67
2018-11-10T09:04:16.879Z,2.12
2018-11-10T09:06:45.574Z,2.50
2018-11-10T09:09:14.314Z,1.95
2018-11-10T09:11:43.151Z,2.67
2018-11-10T09:14:11.949Z,2.05
2018-11-10T09:16:40.759Z,2.37
2018-11-10T09:19:09.498Z,2.40
2018-11-10T09:21:39.289Z,2.52
2018-11-10T09:24:07.979Z,2.90
2018-11-10T09:26:36.666Z,3.37
2018-11-10T09:29:06.005Z,9.55
2018-11-10T09:31:34.755Z,2.92
2018-11-10T09:34:03.669Z,2.50
2018-11-10T09:36:32.397Z,2.62
2018-11-10T09:39:01.076Z,1.67
2018-11-10T09:41:29.807Z,2.35
2018-11-10T09:43:59.711Z,2.52
2018-11-10T09:46:28.472Z,3.67
2018-11-10T09:48:57.276Z,2.22
2018-11-10T09:51:26.003Z,9.75
2018-11-10T09:53:55.931Z,13.90
2018-11-10T09:56:24.677Z,9.13
2018-11-10T09:58:53.433Z,9.45
2018-11-10T10:01:22.286Z,11.83
2018-11-10T10:03:50.941Z,4.25
2018-11-10T10:06:20.570Z,5.00
2018-11-10T10:08:49.455Z,6.67
2018-11-10T10:11:18.162Z,12.10
2018-11-10T10:13:46.892Z,6.15
2018-11-10T10:16:15.713Z,7.97
2018-11-10T10:18:44.371Z,3.42
2018-11-10T10:21:13.328Z,9.88
2018-11-10T10:23:42.057Z,5.67
2018-11-10T10:26:10.932Z,3.62
2018-11-10T10:28:39.769Z,6.40
2018-11-10T10:31:08.625Z,4.90
2018-11-10T10:33:37.420Z,6.92
2018-11-10T10:36:06.243Z,7.58
2018-11-10T10:38:35.005Z,6.15
2018-11-10T10:41:03.735Z,3.95
2018-11-10T10:43:32.451Z,4.37
2018-11-10T10:46:01.157Z,6.58
2018-11-10T10:48:29.922Z,3.80
2018-11-10T10:50:58.631Z,5.12
2018-11-10T10:53:27.953Z,3.55
2018-11-10T10:55:56.857Z,3.98
2018-11-10T10:58:25.594Z,8.75
2018-11-10T11:00:59.650Z,8.25
2018-11-10T11:03:33.703Z,4.70
2018-11-10T11:06:02.776Z,3.50
2018-11-10T11:08:31.511Z,4.25
2018-11-10T11:11:00.277Z,10.18
2018-11-10T11:13:29.085Z,3.80
2018-11-10T11:15:57.855Z,7.40
2018-11-10T11:18:26.617Z,4.42
2018-11-10T11:20:55.415Z,4.28
2018-11-10T11:23:24.391Z,14.43
2018-11-10T11:25:53.102Z,6.47
2018-11-10T11:28:21.933Z,7.45
2018-11-10T11:30:50.669Z,3.15
2018-11-10T11:33:19.539Z,5.03
2018-11-10T11:35:48.295Z,37.98
2018-11-10T11:38:17.001Z,24.43
2018-11-10T11:40:45.808Z,33.00
2018-11-10T11:43:14.579Z,30.35
2018-11-10T11:45:43.414Z,11.75
2018-11-10T11:48:12.124Z,11.25
2018-11-10T11:50:40.863Z,12.68
2018-11-10T11:53:09.621Z,8.88
2018-11-10T11:55:38.412Z,8.03
2018-11-10T11:58:07.347Z,12.70
2018-11-10T12:00:35.891Z,9.45
2018-11-10T12:03:04.747Z,15.80
2018-11-10T12:05:33.565Z,9.18
2018-11-10T12:08:02.393Z,6.42
2018-11-10T12:10:31.133Z,10.30
2018-11-10T12:12:59.884Z,6.22
2018-11-10T12:15:28.769Z,22.95
2018-11-10T12:17:57.430Z,5.17
2018-11-10T12:20:26.266Z,13.70
2018-11-10T12:22:55.015Z,15.55
2018-11-10T12:25:23.731Z,9.60
2018-11-10T12:27:52.542Z,24.30
2018-11-10T12:30:21.235Z,14.07
2018-11-10T12:32:49.971Z,15.08
2018-11-10T12:35:18.671Z,17.00
2018-11-10T12:37:47.464Z,19.55
2018-11-10T12:40:16.160Z,11.43
2018-11-10T12:42:44.976Z,22.32
2018-11-10T12:45:14.426Z,13.15
2018-11-10T12:47:44.201Z,11.08
2018-11-10T12:50:13.839Z,19.62
2018-11-10T12:52:43.589Z,17.52
2018-11-10T12:55:13.669Z,13.03
2018-11-10T12:57:43.012Z,10.63
2018-11-10T13:00:13.212Z,12.20
2018-11-10T13:02:42.236Z,20.95
2018-11-10T13:05:11.714Z,7.60
2018-11-10T13:07:41.841Z,14.55
2018-11-10T13:10:11.238Z,9.50
2018-11-10T13:12:40.648Z,6.05
2018-11-10T13:15:09.735Z,5.72
2018-11-10T13:17:39.005Z,9.40
2018-11-10T13:20:09.768Z,11.20
2018-11-10T13:22:38.558Z,18.60
2018-11-10T13:25:08.115Z,18.73
2018-11-10T13:27:36.877Z,18.70
2018-11-10T13:30:06.921Z,9.70
2018-11-10T13:32:35.629Z,8.53
2018-11-10T13:35:05.212Z,7.10
2018-11-10T13:37:33.931Z,6.33
2018-11-10T13:40:02.685Z,6.03
2018-11-10T13:42:31.606Z,10.05
2018-11-10T13:45:00.336Z,13.83
2018-11-10T13:47:29.149Z,6.58
2018-11-10T13:49:57.871Z,4.80
2018-11-10T13:52:26.966Z,6.67
2018-11-10T13:54:55.459Z,5.42
2018-11-10T13:57:24.198Z,9.68
2018-11-10T13:59:52.912Z,4.67
2018-11-10T14:02:21.601Z,6.20
2018-11-10T14:04:50.329Z,6.97
2018-11-10T14:07:19.142Z,8.88
2018-11-10T14:09:47.870Z,12.25
2018-11-10T14:12:16.598Z,6.22
2018-11-10T14:14:45.402Z,3.80
2018-11-10T14:17:14.917Z,5.85
2018-11-10T14:19:43.798Z,11.15
2018-11-10T14:22:12.608Z,10.23
2018-11-10T14:24:41.350Z,7.47
2018-11-10T14:27:10.082Z,16.73
2018-11-10T14:29:39.136Z,9.45
2018-11-10T14:32:07.956Z,10.23
2018-11-10T14:34:36.908Z,7.50
2018-11-10T14:37:05.991Z,7.40
2018-11-10T14:39:34.694Z,9.28
2018-11-10T14:42:03.468Z,12.43
2018-11-10T14:44:33.711Z,8.53
2018-11-10T14:47:02.453Z,8.78
2018-11-10T14:49:31.167Z,7.70
2018-11-10T14:51:59.961Z,21.05
2018-11-10T14:54:28.824Z,22.17
2018-11-10T14:56:57.586Z,12.93
2018-11-10T14:59:26.307Z,19.80
2018-11-10T15:01:55.037Z,23.22
2018-11-10T15:04:23.799Z,21.85
2018-11-10T15:06:52.616Z,18.42
2018-11-10T15:09:21.477Z,23.57
2018-11-10T15:11:50.396Z,31.00
2018-11-10T15:14:19.020Z,41.02
2018-11-10T15:16:47.750Z,32.60
2018-11-10T15:19:16.551Z,34.00
2018-11-10T15:21:45.277Z,24.67
2018-11-10T15:24:14.017Z,30.05
2018-11-10T15:26:42.796Z,27.52
2018-11-10T15:29:11.705Z,42.85
2018-11-10T15:31:40.529Z,35.48
2018-11-10T15:34:09.760Z,32.55
2018-11-10T15:36:38.493Z,25.40
2018-11-10T15:39:07.890Z,21.35
2018-11-10T15:41:36.615Z,25.92
2018-11-10T15:44:05.373Z,26.68
2018-11-10T15:46:34.139Z,31.77
2018-11-10T15:49:05.227Z,23.00
2018-11-10T15:51:34.061Z,34.30
2018-11-10T15:54:03.391Z,27.95
2018-11-10T15:56:32.151Z,23.32
2018-11-10T15:59:00.937Z,25.12
2018-11-10T16:01:31.103Z,26.87
2018-11-10T16:03:59.960Z,23.60
2018-11-10T16:06:28.705Z,28.55
2018-11-10T16:08:57.742Z,25.97
2018-11-10T16:11:26.417Z,33.28
2018-11-10T16:13:55.124Z,24.92
2018-11-10T16:16:23.909Z,23.50
2018-11-10T16:18:52.841Z,30.27
2018-11-10T16:21:21.582Z,38.60
2018-11-10T16:23:50.389Z,31.97
2018-11-10T16:26:19.195Z,31.93
2018-11-10T16:28:48.330Z,32.23
2018-11-10T16:31:17.533Z,34.15
2018-11-10T16:33:46.363Z,31.02
2018-11-10T16:36:15.123Z,29.50
2018-11-10T16:38:43.902Z,44.30
2018-11-10T16:41:12.683Z,23.75
2018-11-10T16:43:41.595Z,29.72
2018-11-10T16:46:10.461Z,29.80
2018-11-10T16:48:39.427Z,44.00
2018-11-10T16:51:09.052Z,54.53
2018-11-10T16:53:37.881Z,24.47
2018-11-10T16:56:07.142Z,52.75
2018-11-10T16:58:35.954Z,32.08
2018-11-10T17:01:04.805Z,27.48
2018-11-10T17:03:33.768Z,29.85
2018-11-10T17:06:02.636Z,28.42
2018-11-10T17:08:31.537Z,33.15
2018-11-10T17:11:00.331Z,31.97
2018-11-10T17:13:29.091Z,25.27
2018-11-10T17:15:57.799Z,22.65
2018-11-10T17:18:26.684Z,41.02
2018-11-10T17:20:56.619Z,31.80
2018-11-10T17:23:26.542Z,27.37
2018-11-10T17:25:55.331Z,25.02
2018-11-10T17:28:24.103Z,22.65
2018-11-10T17:30:52.870Z,25.77
2018-11-10T17:33:21.636Z,35.23
2018-11-10T17:35:50.413Z,51.25
2018-11-10T17:38:19.156Z,52.60
2018-11-10T17:40:47.903Z,43.02
2018-11-10T17:43:17.142Z,36.30
2018-11-10T17:45:45.985Z,44.13
2018-11-10T17:48:14.795Z,47.00
2018-11-10T17:50:44.937Z,36.45
2018-11-10T17:53:13.733Z,37.38
2018-11-10T17:55:43.635Z,49.33
2018-11-10T17:58:12.383Z,61.90
2018-11-10T18:00:41.229Z,35.98
2018-11-10T18:03:10.732Z,28.77
2018-11-10T18:05:39.782Z,43.08
2018-11-10T18:08:08.805Z,32.78
2018-11-10T18:10:37.831Z,33.48
2018-11-10T18:13:07.528Z,35.40
2018-11-10T18:15:37.203Z,28.42
2018-11-10T18:18:05.943Z,40.48
2018-11-10T18:20:34.987Z,36.90
2018-11-10T18:23:04.264Z,35.35
2018-11-10T18:25:33.249Z,19.85
2018-11-10T18:28:02.251Z,42.23
2018-11-10T18:30:33.393Z,17.48
2018-11-10T18:33:02.058Z,38.78
2018-11-10T18:35:30.827Z,31.27
2018-11-10T18:37:59.616Z,28.27
2018-11-10T18:40:28.361Z,29.65
2018-11-10T18:42:57.147Z,25.10
2018-11-10T18:45:25.915Z,21.65
2018-11-10T18:47:56.272Z,44.98
2018-11-10T18:50:24.953Z,19.92
2018-11-10T18:52:53.712Z,18.42
2018-11-10T18:55:22.483Z,26.37
2018-11-10T18:57:51.363Z,31.17
2018-11-10T19:00:20.329Z,21.48
2018-11-10T19:02:49.189Z,23.67
2018-11-10T19:05:18.128Z,24.02
2018-11-10T19:07:46.897Z,13.25
2018-11-10T19:10:16.914Z,16.82
2018-11-10T19:12:45.680Z,13.22
2018-11-10T19:15:16.641Z,24.30
2018-11-10T19:17:47.185Z,22.77
2018-11-10T19:20:16.263Z,17.17
2018-11-10T19:22:45.085Z,19.73
2018-11-10T19:25:14.346Z,26.10
2018-11-10T19:27:43.053Z,20.05
2018-11-10T19:30:14.644Z,17.40
2018-11-10T19:32:45.655Z,25.32
2018-11-10T19:35:15.435Z,23.27
2018-11-10T19:37:44.560Z,16.62
2018-11-10T19:40:13.452Z,22.82
2018-11-10T19:42:43.234Z,29.02
2018-11-10T19:45:12.888Z,24.18
2018-11-10T19:47:42.814Z,10.08
2018-11-10T19:50:12.560Z,14.78
2018-11-10T19:52:41.214Z,14.40
2018-11-10T19:55:12.146Z,15.08
2018-11-10T19:57:40.836Z,20.62
2018-11-10T20:00:11.864Z,17.05
2018-11-10T20:02:40.591Z,20.37
2018-11-10T20:05:09.580Z,9.85
2018-11-10T20:07:39.720Z,14.00
2018-11-10T20:10:09.210Z,7.78
2018-11-10T20:12:37.924Z,13.90
2018-11-10T20:15:08.036Z,11.40
2018-11-10T20:17:37.184Z,9.48
2018-11-10T20:20:06.746Z,17.10
2018-11-10T20:22:35.497Z,18.50
2018-11-10T20:25:05.087Z,12.53
2018-11-10T20:27:33.789Z,15.18
2018-11-10T20:30:02.567Z,22.00
2018-11-10T20:32:31.297Z,11.12
2018-11-10T20:35:00.207Z,16.87
2018-11-10T20:37:30.737Z,11.83
2018-11-10T20:40:00.364Z,7.20
2018-11-10T20:42:29.146Z,7.08
2018-11-10T20:44:57.978Z,10.20
2018-11-10T20:47:26.734Z,13.68
2018-11-10T20:49:55.628Z,7.40
2018-11-10T20:52:24.839Z,8.63
2018-11-10T20:54:53.625Z,10.55
2018-11-10T20:57:23.215Z,5.00
2018-11-10T20:59:52.031Z,17.62
2018-11-10T21:02:20.791Z,7.55
2018-11-10T21:04:49.623Z,10.28
2018-11-10T21:07:18.309Z,7.53
2018-11-10T21:09:47.956Z,11.65
2018-11-10T21:12:16.800Z,9.40
2018-11-10T21:14:45.569Z,12.58
2018-11-10T21:17:14.303Z,9.08
2018-11-10T21:19:46.286Z,8.50
2018-11-10T21:22:15.471Z,5.87
2018-11-10T21:24:44.270Z,8.45
2018-11-10T21:27:12.993Z,7.75
2018-11-10T21:29:42.475Z,9.83
2018-11-10T21:32:11.199Z,5.05
2018-11-10T21:34:40.003Z,14.43
2018-11-10T21:37:09.127Z,8.73
2018-11-10T21:39:38.068Z,8.70
2018-11-10T21:42:06.946Z,8.08
2018-11-10T21:44:35.771Z,10.00
2018-11-10T21:47:04.582Z,6.20
2018-11-10T21:49:33.464Z,4.40
2018-11-10T21:52:02.396Z,7.42
2018-11-10T21:54:31.088Z,7.00
2018-11-10T21:56:59.807Z,4.28
2018-11-10T21:59:28.547Z,6.85
2018-11-10T22:01:57.413Z,6.35
2018-11-10T22:04:26.176Z,5.95
2018-11-10T22:06:54.870Z,9.23
2018-11-10T22:09:23.949Z,7.10
2018-11-10T22:11:52.323Z,20.30
2018-11-10T22:14:21.047Z,8.18
2018-11-10T22:16:49.803Z,7.00
2018-11-10T22:19:18.517Z,6.95
2018-11-10T22:21:47.303Z,7.28
2018-11-10T22:24:16.216Z,12.55
2018-11-10T22:26:45.084Z,5.70
2018-11-10T22:29:13.804Z,4.80
2018-11-10T22:31:42.736Z,3.30
2018-11-10T22:34:11.475Z,3.58
2018-11-10T22:36:40.239Z,6.37
2018-11-10T22:39:10.021Z,5.30
2018-11-10T22:41:39.346Z,5.28
2018-11-10T22:44:08.101Z,5.70
2018-11-10T22:46:37.047Z,5.22
2018-11-10T22:49:05.786Z,5.55
2018-11-10T22:51:34.747Z,7.08
2018-11-10T22:54:03.746Z,3.75
2018-11-10T22:56:32.484Z,3.62
2018-11-10T22:59:01.248Z,8.10
2018-11-10T23:01:32.683Z,6.75
2018-11-10T23:04:04.517Z,9.55
2018-11-10T23:06:34.980Z,4.75
2018-11-10T23:09:04.318Z,4.60
2018-11-10T23:11:33.060Z,7.12
2018-11-10T23:14:01.803Z,5.05
2018-11-10T23:16:30.602Z,3.55
2018-11-10T23:18:59.352Z,6.80
2018-11-10T23:21:28.321Z,6.92
2018-11-10T23:23:57.068Z,4.50
2018-11-10T23:26:26.691Z,5.42
2018-11-10T23:28:55.642Z,10.45
2018-11-10T23:31:24.447Z,3.50
2018-11-10T23:33:53.670Z,4.75
2018-11-10T23:36:22.534Z,2.25
2018-11-10T23:38:51.359Z,3.02
2018-11-10T23:41:20.695Z,5.50
2018-11-10T23:43:50.445Z,3.87
2018-11-10T23:46:19.618Z,6.58
2018-11-10T23:48:48.649Z,2.95
2018-11-10T23:51:17.502Z,3.75
2018-11-10T23:53:46.269Z,8.28
2018-11-10T23:56:15.875Z,5.42
2018-11-10T23:58:45.235Z,9.50
